Time,TemperatureF,DewpointF,PressureIn,WindDirection,WindDirectionDegrees,WindSpeedMPH,WindSpeedGustMPH,Humidity,HourlyPrecipIn,Conditions,Clouds,dailyrainin,SolarRadiationWatts/m^2,SoftwareType,DateUTC
2013-02-21 00:00:00,41.9,35.2,30.08,NNW,338,2.0,7.0,77,0.00,,,0.00,0.00,VWS V14.01,2013-02-21 08:00:00,
2013-02-21 00:10:00,41.3,35.0,30.08,NW,315,0.0,5.0,78,0.00,,,0.00,0.00,VWS V14.01,2013-02-21 08:10:00,
2013-02-21 00:20:00,41.4,35.1,30.08,NNW,338,1.0,7.0,78,0.00,,,0.00,0.00,VWS V14.01,2013-02-21 08:20:00,
2013-02-21 00:30:00,41.0,34.7,30.08,North,0,1.0,3.0,78,0.00,,,0.00,0.00,VWS V14.01,2013-02-21 08:30:00,
2013-02-21 00:40:00,41.1,34.8,30.08,NNW,338,1.0,5.0,78,0.00,,,0.00,0.00,VWS V14.01,2013-02-21 08:40:00,
2013-02-21 00:50:00,40.9,34.6,30.08,NNW,338,0.0,3.0,78,0.00,,,0.00,0.00,VWS V14.01,2013-02-21 08:50:00,
2013-02-21 01:00:00,41.0,34.7,30.09,NNW,338,0.0,5.0,78,0.00,,,0.00,0.00,VWS V14.01,2013-02-21 09:00:00,
2013-02-21 01:10:00,40.7,34.4,30.09,NNE,22,1.0,4.0,78,0.00,,,0.00,0.00,VWS V14.01,2013-02-21 09:10:00,
2013-02-21 01:20:00,40.6,34.3,30.09,NNE,22,1.0,3.0,78,0.00,,,0.00,0.00,VWS V14.01,2013-02-21 09:20:00,
2013-02-21 01:30:00,39.9,33.9,30.09,NE,45,3.0,5.0,79,0.00,,,0.00,0.00,VWS V14.01,2013-02-21 09:30:00,
2013-02-21 01:40:00,39.5,33.5,30.09,ENE,68,2.0,5.0,79,0.00,,,0.00,0.00,VWS V14.01,2013-02-21 09:40:00,
2013-02-21 01:50:00,39.7,33.7,30.09,NE,45,1.0,4.0,79,0.00,,,0.00,0.00,VWS V14.01,2013-02-21 09:50:00,
2013-02-21 02:00:00,40.1,33.8,30.09,NW,315,1.0,4.0,78,0.00,,,0.00,0.00,VWS V14.01,2013-02-21 10:00:00,
2013-02-21 02:10:00,39.8,33.5,30.09,NNE,22,1.0,4.0,78,0.00,,,0.00,0.00,VWS V14.01,2013-02-21 10:10:00,
2013-02-21 02:20:00,39.9,33.6,30.09,NNE,22,1.0,3.0,78,0.00,,,0.00,0.00,VWS V14.01,2013-02-21 10:20:00,
2013-02-21 02:30:00,39.7,33.4,30.09,NNE,22,1.0,4.0,78,0.00,,,0.00,0.00,VWS V14.01,2013-02-21 10:30:00,
2013-02-21 02:40:00,39.1,33.2,30.09,NNE,22,2.0,4.0,79,0.00,,,0.00,0.00,VWS V14.01,2013-02-21 10:40:00,
2013-02-21 02:50:00,39.0,33.0,30.09,NNE,22,1.0,4.0,79,0.00,,,0.00,0.00,VWS V14.01,2013-02-21 10:50:00,
2013-02-21 03:00:00,38.7,32.8,30.09,NNE,22,1.0,5.0,79,0.00,,,0.00,0.00,VWS V14.01,2013-02-21 11:00:00,
2013-02-21 03:10:00,39.4,33.1,30.09,NNE,22,1.0,6.0,78,0.00,,,0.00,0.00,VWS V14.01,2013-02-21 11:10:00,
2013-02-21 03:20:00,39.7,33.1,30.08,NNE,22,0.0,2.0,77,0.00,,,0.00,0.00,VWS V14.01,2013-02-21 11:20:00,
2013-02-21 03:30:00,39.9,33.0,30.08,NNE,22,2.0,5.0,76,0.00,,,0.00,0.00,VWS V14.01,2013-02-21 11:30:00,
2013-02-21 03:40:00,39.6,33.0,30.08,NNE,22,1.0,4.0,77,0.00,,,0.00,0.00,VWS V14.01,2013-02-21 11:40:00,
2013-02-21 03:50:00,39.3,32.7,30.09,NNE,22,1.0,3.0,77,0.00,,,0.00,0.00,VWS V14.01,2013-02-21 11:50:00,
2013-02-21 04:00:00,39.2,32.6,30.09,NNE,22,1.0,4.0,77,0.00,,,0.00,0.00,VWS V14.01,2013-02-21 12:00:00,
2013-02-21 04:10:00,39.2,32.9,30.08,NNE,22,0.0,1.0,78,0.00,,,0.00,0.00,VWS V14.01,2013-02-21 12:10:00,
2013-02-21 04:20:00,39.1,32.8,30.08,NNE,22,1.0,6.0,78,0.00,,,0.00,0.00,VWS V14.01,2013-02-21 12:20:00,
2013-02-21 04:30:00,39.5,32.9,30.08,NNW,338,1.0,5.0,77,0.00,,,0.00,0.00,VWS V14.01,2013-02-21 12:30:00,
2013-02-21 04:40:00,40.4,33.5,30.09,NNW,338,2.0,12.0,76,0.00,,,0.00,0.00,VWS V14.01,2013-02-21 12:40:00,
2013-02-21 04:50:00,40.5,33.5,30.09,ENE,68,2.0,4.0,76,0.00,,,0.00,0.00,VWS V14.01,2013-02-21 12:50:00,
2013-02-21 05:00:00,40.4,32.8,30.10,ENE,68,1.0,7.0,74,0.00,,,0.00,0.00,VWS V14.01,2013-02-21 13:00:00,
2013-02-21 05:10:00,40.3,33.0,30.10,West,270,2.0,6.0,75,0.00,,,0.00,0.00,VWS V14.01,2013-02-21 13:10:00,
2013-02-21 05:20:00,39.0,32.4,30.11,ENE,68,2.0,5.0,77,0.00,,,0.00,0.00,VWS V14.01,2013-02-21 13:20:00,
2013-02-21 05:30:00,38.0,32.4,30.10,North,0,3.0,6.0,80,0.00,,,0.00,0.00,VWS V14.01,2013-02-21 13:30:00,
2013-02-21 05:40:00,39.5,33.5,30.10,North,0,3.0,7.0,79,0.00,,,0.00,0.00,VWS V14.01,2013-02-21 13:40:00,
2013-02-21 05:50:00,40.2,33.6,30.10,North,0,2.0,8.0,77,0.00,,,0.00,0.00,VWS V14.01,2013-02-21 13:50:00,
2013-02-21 06:00:00,40.6,33.6,30.10,North,0,4.0,11.0,76,0.00,,,0.00,0.00,VWS V14.01,2013-02-21 14:00:00,
2013-02-21 06:10:00,40.6,33.3,30.11,North,0,4.0,9.0,75,0.00,,,0.00,0.00,VWS V14.01,2013-02-21 14:10:00,
2013-02-21 06:20:00,40.5,33.2,30.11,North,0,3.0,11.0,75,0.00,,,0.00,0.00,VWS V14.01,2013-02-21 14:20:00,
2013-02-21 06:30:00,40.5,33.2,30.11,North,0,3.0,12.0,75,0.00,,,0.00,0.00,VWS V14.01,2013-02-21 14:30:00,
2013-02-21 06:40:00,41.5,33.5,30.11,North,0,4.0,12.0,73,0.00,,,0.00,0.00,VWS V14.01,2013-02-21 14:40:00,
2013-02-21 06:50:00,41.1,33.1,30.12,NW,315,2.0,13.0,73,0.00,,,0.00,0.00,VWS V14.01,2013-02-21 14:50:00,
2013-02-21 07:00:00,39.5,32.6,30.12,NW,315,1.0,6.0,76,0.00,,,0.00,2.00,VWS V14.01,2013-02-21 15:00:00,
2013-02-21 07:10:00,40.2,33.2,30.12,NW,315,3.0,11.0,76,0.00,,,0.00,7.00,VWS V14.01,2013-02-21 15:10:00,
2013-02-21 07:27:00,40.4,33.1,30.13,NNW,342,5.0,8.0,75,0.00,,,0.00,18.00,VWS V14.01,2013-02-21 15:27:00,
2013-02-21 07:37:00,40.5,33.2,30.13,WNW,300,0.0,11.0,75,0.00,,,0.00,19.00,VWS V14.01,2013-02-21 15:37:00,
2013-02-21 07:47:00,40.4,33.5,30.13,NNW,337,4.0,9.0,76,0.00,,,0.00,21.00,VWS V14.01,2013-02-21 15:47:00,
2013-02-21 07:57:00,40.6,33.6,30.14,NNW,336,3.0,7.0,76,0.00,,,0.00,172.00,VWS V14.01,2013-02-21 15:57:00,
2013-02-21 08:07:00,41.5,33.8,30.15,NW,319,1.0,9.0,74,0.00,,CLR,0.00,202.00,VWS V14.01,2013-02-21 16:07:00,
2013-02-21 08:17:00,42.6,34.6,30.15,NW,314,4.0,12.0,73,0.00,,CLR,0.00,236.00,VWS V14.01,2013-02-21 16:17:00,
2013-02-21 08:27:00,43.7,34.6,30.16,WNW,300,7.0,13.0,70,0.00,,CLR,0.00,269.00,VWS V14.01,2013-02-21 16:27:00,
2013-02-21 08:37:00,44.4,34.5,30.16,NNW,341,5.0,11.0,68,0.00,,CLR,0.00,301.00,VWS V14.01,2013-02-21 16:37:00,
2013-02-21 08:47:00,45.0,35.1,30.16,North,360,1.0,18.0,68,0.00,,CLR,0.00,332.00,VWS V14.01,2013-02-21 16:47:00,
2013-02-21 08:57:00,45.5,35.2,30.16,North,350,3.0,11.0,67,0.00,,CLR,0.00,339.00,VWS V14.01,2013-02-21 16:57:00,
2013-02-21 09:07:00,46.0,34.9,30.16,WNW,300,1.0,13.0,65,0.00,,CLR,0.00,396.00,VWS V14.01,2013-02-21 17:07:00,
2013-02-21 09:17:00,46.2,34.7,30.17,WSW,252,11.0,14.0,64,0.00,,CLR,0.00,406.00,VWS V14.01,2013-02-21 17:17:00,
2013-02-21 09:27:00,46.6,35.5,30.17,NNW,346,3.0,12.0,65,0.00,,CLR,0.00,452.00,VWS V14.01,2013-02-21 17:27:00,
2013-02-21 09:37:00,47.4,35.5,30.16,NNW,338,7.0,13.0,63,0.00,,CLR,0.00,476.00,VWS V14.01,2013-02-21 17:37:00,
2013-02-21 09:47:00,47.3,34.5,30.16,NW,321,6.0,15.0,61,0.00,,CLR,0.00,503.00,VWS V14.01,2013-02-21 17:47:00,
2013-02-21 09:57:00,47.6,35.2,30.16,NW,325,12.0,16.0,62,0.00,,CLR,0.00,526.00,VWS V14.01,2013-02-21 17:57:00,
2013-02-21 10:10:00,48.3,35.5,30.17,NW,315,8.0,15.0,61,0.00,,CLR,0.00,537.00,VWS V14.01,2013-02-21 18:10:00,
2013-02-21 10:20:00,49.1,35.4,30.17,NNW,338,8.0,14.0,59,0.00,,CLR,0.00,559.00,VWS V14.01,2013-02-21 18:20:00,
2013-02-21 10:30:00,49.8,36.1,30.17,NNW,338,6.0,14.0,59,0.00,,CLR,0.00,580.00,VWS V14.01,2013-02-21 18:30:00,
2013-02-21 10:40:00,50.3,36.1,30.17,North,0,6.0,13.0,58,0.00,,CLR,0.00,598.00,VWS V14.01,2013-02-21 18:40:00,
2013-02-21 10:50:00,50.5,35.4,30.17,NNW,338,8.0,17.0,56,0.00,,CLR,0.00,615.00,VWS V14.01,2013-02-21 18:50:00,
2013-02-21 11:00:00,51.2,36.1,30.17,NNW,338,6.0,13.0,56,0.00,,CLR,0.00,630.00,VWS V14.01,2013-02-21 19:00:00,
2013-02-21 11:10:00,51.8,35.2,30.17,NW,315,8.0,15.0,53,0.00,,CLR,0.00,645.00,VWS V14.01,2013-02-21 19:10:00,
2013-02-21 11:20:00,52.3,34.2,30.17,NW,315,9.0,15.0,50,0.00,,CLR,0.00,658.00,VWS V14.01,2013-02-21 19:20:00,
2013-02-21 11:30:00,53.0,34.9,30.17,NNW,338,7.0,14.0,50,0.00,,CLR,0.00,669.00,VWS V14.01,2013-02-21 19:30:00,
2013-02-21 11:40:00,53.7,34.5,30.16,NNW,338,8.0,16.0,48,0.00,,CLR,0.00,678.00,VWS V14.01,2013-02-21 19:40:00,
2013-02-21 11:50:00,54.3,34.0,30.16,NNW,338,7.0,15.0,46,0.00,,CLR,0.00,683.00,VWS V14.01,2013-02-21 19:50:00,
2013-02-21 12:00:00,55.6,32.9,30.15,NNW,338,6.0,13.0,42,0.00,,CLR,0.00,690.00,VWS V14.01,2013-02-21 20:00:00,
2013-02-21 12:10:00,55.9,34.3,30.14,NW,315,6.0,12.0,44,0.00,,CLR,0.00,696.00,VWS V14.01,2013-02-21 20:10:00,
2013-02-21 12:20:00,56.7,35.0,30.14,NNW,338,4.0,9.0,44,0.00,,CLR,0.00,699.00,VWS V14.01,2013-02-21 20:20:00,
2013-02-21 12:30:00,57.0,35.3,30.14,North,0,6.0,12.0,44,0.00,,CLR,0.00,700.00,VWS V14.01,2013-02-21 20:30:00,
2013-02-21 12:40:00,57.5,34.6,30.14,North,0,5.0,13.0,42,0.00,,CLR,0.00,698.00,VWS V14.01,2013-02-21 20:40:00,
2013-02-21 12:50:00,57.8,33.7,30.13,NNW,338,7.0,15.0,40,0.00,,CLR,0.00,695.00,VWS V14.01,2013-02-21 20:50:00,
2013-02-21 13:00:00,57.9,34.4,30.13,NW,315,8.0,14.0,41,0.00,,CLR,0.00,691.00,VWS V14.01,2013-02-21 21:00:00,
2013-02-21 13:10:00,58.4,36.6,30.13,NNW,338,7.0,16.0,44,0.00,,CLR,0.00,684.00,VWS V14.01,2013-02-21 21:10:00,
2013-02-21 13:20:00,58.5,34.9,30.13,NW,315,8.0,15.0,41,0.00,,CLR,0.00,677.00,VWS V14.01,2013-02-21 21:20:00,
2013-02-21 13:30:00,59.0,34.1,30.12,NW,315,6.0,16.0,39,0.00,,CLR,0.00,670.00,VWS V14.01,2013-02-21 21:30:00,
2013-02-21 13:40:00,59.0,32.8,30.12,NW,315,7.0,13.0,37,0.00,,CLR,0.00,660.00,VWS V14.01,2013-02-21 21:40:00,
2013-02-21 13:50:00,59.5,33.9,30.11,NNW,338,6.0,12.0,38,0.00,,CLR,0.00,638.00,VWS V14.01,2013-02-21 21:50:00,
2013-02-21 14:00:00,59.6,34.6,30.11,NNW,338,5.0,14.0,39,0.00,,CLR,0.00,632.00,VWS V14.01,2013-02-21 22:00:00,
2013-02-21 14:10:00,60.0,34.3,30.11,NW,315,6.0,12.0,38,0.00,,CLR,0.00,606.00,VWS V14.01,2013-02-21 22:10:00,
2013-02-21 14:20:00,60.3,33.9,30.11,NW,315,4.0,10.0,37,0.00,,CLR,0.00,537.00,VWS V14.01,2013-02-21 22:20:00,
2013-02-21 14:30:00,60.9,35.1,30.11,West,270,3.0,9.0,38,0.00,,CLR,0.00,563.00,VWS V14.01,2013-02-21 22:30:00,
2013-02-21 14:40:00,60.9,32.4,30.10,NNW,338,5.0,12.0,34,0.00,,CLR,0.00,547.00,VWS V14.01,2013-02-21 22:40:00,
2013-02-21 14:50:00,60.9,32.4,30.10,NW,315,6.0,13.0,34,0.00,,CLR,0.00,511.00,VWS V14.01,2013-02-21 22:50:00,
2013-02-21 15:00:00,61.5,35.7,30.10,West,270,4.0,10.0,38,0.00,,CLR,0.00,496.00,VWS V14.01,2013-02-21 23:00:00,
2013-02-21 15:10:00,61.5,32.2,30.10,West,270,6.0,13.0,33,0.00,,CLR,0.00,473.00,VWS V14.01,2013-02-21 23:10:00,
2013-02-21 15:20:00,61.1,34.0,30.09,NW,315,5.0,12.0,36,0.00,,CLR,0.00,448.00,VWS V14.01,2013-02-21 23:20:00,
2013-02-21 15:30:00,61.1,33.3,30.09,West,270,4.0,10.0,35,0.00,,CLR,0.00,407.00,VWS V14.01,2013-02-21 23:30:00,
2013-02-21 15:40:00,61.4,33.5,30.09,West,270,3.0,10.0,35,0.00,,CLR,0.00,393.00,VWS V14.01,2013-02-21 23:40:00,
2013-02-21 15:50:00,61.3,35.5,30.09,West,270,5.0,13.0,38,0.00,,CLR,0.00,384.00,VWS V14.01,2013-02-21 23:50:00,
2013-02-21 16:00:00,61.0,33.9,30.09,West,270,7.0,12.0,36,0.00,,CLR,0.00,360.00,VWS V14.01,2013-02-22 00:00:00,
2013-02-21 16:10:00,60.7,35.0,30.09,West,270,7.0,14.0,38,0.00,,CLR,0.00,340.00,VWS V14.01,2013-02-22 00:10:00,
2013-02-21 16:20:00,60.8,33.7,30.09,NW,315,4.0,12.0,36,0.00,,CLR,0.00,252.00,VWS V14.01,2013-02-22 00:20:00,
2013-02-21 16:30:00,60.1,33.8,30.10,NW,315,5.0,10.0,37,0.00,,CLR,0.00,193.00,VWS V14.01,2013-02-22 00:30:00,
2013-02-21 16:40:00,59.9,35.5,30.10,WSW,248,4.0,10.0,40,0.00,,CLR,0.00,187.00,VWS V14.01,2013-02-22 00:40:00,
2013-02-21 16:50:00,60.1,36.3,30.10,West,270,4.0,11.0,41,0.00,,CLR,0.00,198.00,VWS V14.01,2013-02-22 00:50:00,
2013-02-21 17:00:00,60.0,36.2,30.10,West,270,3.0,9.0,41,0.00,,CLR,0.00,166.00,VWS V14.01,2013-02-22 01:00:00,
2013-02-21 17:10:00,59.5,37.0,30.10,WSW,248,3.0,9.0,43,0.00,,CLR,0.00,137.00,VWS V14.01,2013-02-22 01:10:00,
2013-02-21 17:20:00,58.7,38.0,30.10,WSW,248,5.0,11.0,46,0.00,,CLR,0.00,110.00,VWS V14.01,2013-02-22 01:20:00,
2013-02-21 17:30:00,57.6,38.6,30.11,West,270,6.0,12.0,49,0.00,,CLR,0.00,95.00,VWS V14.01,2013-02-22 01:30:00,
2013-02-21 17:40:00,56.7,38.8,30.11,West,270,5.0,11.0,51,0.00,,CLR,0.00,63.00,VWS V14.01,2013-02-22 01:40:00,
2013-02-21 17:50:00,55.5,38.7,30.11,West,270,3.0,7.0,53,0.00,,CLR,0.00,30.00,VWS V14.01,2013-02-22 01:50:00,
2013-02-21 18:00:00,54.5,38.2,30.12,West,270,3.0,8.0,54,0.00,,CLR,0.00,11.00,VWS V14.01,2013-02-22 02:00:00,
2013-02-21 18:10:00,53.8,38.5,30.12,West,270,1.0,5.0,56,0.00,,CLR,0.00,5.00,VWS V14.01,2013-02-22 02:10:00,
2013-02-21 18:20:00,53.0,38.2,30.13,NW,315,1.0,4.0,57,0.00,,CLR,0.00,0.00,VWS V14.01,2013-02-22 02:20:00,
2013-02-21 18:30:00,52.3,38.0,30.13,NW,315,0.0,4.0,58,0.00,,CLR,0.00,0.00,VWS V14.01,2013-02-22 02:30:00,
2013-02-21 18:40:00,52.0,38.1,30.13,NNW,338,3.0,7.0,59,0.00,,CLR,0.00,0.00,VWS V14.01,2013-02-22 02:40:00,
2013-02-21 18:50:00,51.7,37.8,30.13,North,0,2.0,6.0,59,0.00,,CLR,0.00,0.00,VWS V14.01,2013-02-22 02:50:00,
2013-02-21 19:00:00,51.5,37.7,30.14,NNW,338,2.0,7.0,59,0.00,,CLR,0.00,0.00,VWS V14.01,2013-02-22 03:00:00,
2013-02-21 19:10:00,51.1,37.3,30.13,NNW,338,2.0,6.0,59,0.00,,CLR,0.00,0.00,VWS V14.01,2013-02-22 03:10:00,
2013-02-21 19:20:00,50.9,37.1,30.14,NNW,338,3.0,9.0,59,0.00,,CLR,0.00,0.00,VWS V14.01,2013-02-22 03:20:00,
2013-02-21 19:30:00,50.6,37.2,30.14,NNW,338,2.0,9.0,60,0.00,,CLR,0.00,0.00,VWS V14.01,2013-02-22 03:30:00,
2013-02-21 19:40:00,50.3,37.0,30.14,NW,315,1.0,6.0,60,0.00,,CLR,0.00,0.00,VWS V14.01,2013-02-22 03:40:00,
2013-02-21 19:50:00,49.8,36.5,30.15,NW,315,1.0,5.0,60,0.00,,CLR,0.00,0.00,VWS V14.01,2013-02-22 03:50:00,
2013-02-21 20:00:00,49.5,36.6,30.15,NW,315,2.0,6.0,61,0.00,,CLR,0.00,0.00,VWS V14.01,2013-02-22 04:00:00,
2013-02-21 20:10:00,49.1,36.7,30.15,NW,315,2.0,5.0,62,0.00,,CLR,0.00,0.00,VWS V14.01,2013-02-22 04:10:00,
2013-02-21 20:20:00,48.3,36.3,30.15,NNW,338,1.0,4.0,63,0.00,,CLR,0.00,0.00,VWS V14.01,2013-02-22 04:20:00,
2013-02-21 20:30:00,48.2,36.2,30.15,NNW,338,1.0,4.0,63,0.00,,CLR,0.00,0.00,VWS V14.01,2013-02-22 04:30:00,
2013-02-21 20:40:00,47.9,36.3,30.15,NNE,22,1.0,5.0,64,0.00,,CLR,0.00,0.00,VWS V14.01,2013-02-22 04:40:00,
2013-02-21 20:50:00,48.2,36.2,30.15,North,0,2.0,6.0,63,0.00,,CLR,0.00,0.00,VWS V14.01,2013-02-22 04:50:00,
2013-02-21 21:00:00,48.2,36.2,30.15,North,0,1.0,5.0,63,0.00,,CLR,0.00,0.00,VWS V14.01,2013-02-22 05:00:00,
2013-02-21 21:10:00,48.4,36.4,30.15,North,0,1.0,4.0,63,0.00,,CLR,0.00,0.00,VWS V14.01,2013-02-22 05:10:00,
2013-02-21 21:20:00,48.4,36.4,30.15,North,0,0.0,3.0,63,0.00,,CLR,0.00,0.00,VWS V14.01,2013-02-22 05:20:00,
2013-02-21 21:30:00,48.0,36.4,30.16,North,0,0.0,1.0,64,0.00,,CLR,0.00,0.00,VWS V14.01,2013-02-22 05:30:00,
2013-02-21 21:40:00,47.6,36.4,30.16,North,0,0.0,3.0,65,0.00,,CLR,0.00,0.00,VWS V14.01,2013-02-22 05:40:00,
2013-02-21 21:50:00,47.7,36.5,30.17,North,0,0.0,2.0,65,0.00,,CLR,0.00,0.00,VWS V14.01,2013-02-22 05:50:00,
2013-02-21 22:00:00,47.6,36.4,30.16,North,0,0.0,2.0,65,0.00,,CLR,0.00,0.00,VWS V14.01,2013-02-22 06:00:00,
2013-02-21 22:10:00,47.5,36.3,30.17,North,0,1.0,3.0,65,0.00,,CLR,0.00,0.00,VWS V14.01,2013-02-22 06:10:00,
2013-02-21 22:20:00,47.6,36.4,30.17,North,0,0.0,4.0,65,0.00,,CLR,0.00,0.00,VWS V14.01,2013-02-22 06:20:00,
2013-02-21 22:30:00,47.2,36.4,30.17,North,0,0.0,1.0,66,0.00,,CLR,0.00,0.00,VWS V14.01,2013-02-22 06:30:00,
2013-02-21 22:40:00,46.7,36.3,30.17,North,0,0.0,0.0,67,0.00,,CLR,0.00,0.00,VWS V14.01,2013-02-22 06:40:00,
2013-02-21 22:50:00,46.1,36.5,30.17,NNW,338,0.0,5.0,69,0.00,,CLR,0.00,0.00,VWS V14.01,2013-02-22 06:50:00,
2013-02-21 23:00:00,46.1,36.5,30.17,WNW,292,2.0,7.0,69,0.00,,CLR,0.00,0.00,VWS V14.01,2013-02-22 07:00:00,
2013-02-21 23:10:00,46.2,36.6,30.17,NNW,338,1.0,5.0,69,0.00,,CLR,0.00,0.00,VWS V14.01,2013-02-22 07:10:00,
2013-02-21 23:20:00,47.1,36.7,30.18,NNW,338,1.0,6.0,67,0.00,,CLR,0.00,0.00,VWS V14.01,2013-02-22 07:20:00,
2013-02-21 23:30:00,46.9,36.9,30.18,NNW,338,1.0,3.0,68,0.00,,CLR,0.00,0.00,VWS V14.01,2013-02-22 07:30:00,
2013-02-21 23:40:00,45.7,36.5,30.18,NNW,338,0.0,1.0,70,0.00,,CLR,0.00,0.00,VWS V14.01,2013-02-22 07:40:00,
2013-02-21 23:50:00,45.2,36.4,30.18,NNW,338,0.0,0.0,71,0.00,,CLR,0.00,0.00,VWS V14.01,2013-02-22 07:50:00,